Time;durP1;ratioP1;P1;durP2;ratioP2;P2;SDS_P1;SDS_P2;PMS_P1;PMS_P2;Temp;Humidity;BMP_temperature;BMP_pressure;BME280_temperature;BME280_humidity;BME280_pressure;Samples;Min_cycle;Max_cycle;Signal;HPM_P1;HPM_P2
2021/06/10 00:02:01;;;;;;;10.93;7.08;;;;;;;13.65;61.88;100521.31;2044240;85;21015;-71
2021/06/10 00:05:05;;;;;;;9.38;7.03;;;;;;;13.59;61.97;100526.03;2067754;84;21630;-73
2021/06/10 00:08:07;;;;;;;12.30;7.58;;;;;;;13.52;62.17;100527.75;2065757;84;20997;-71
2021/06/10 00:11:08;;;;;;;15.00;7.97;;;;;;;13.50;62.20;100533.75;2066389;84;21604;-73
2021/06/10 00:14:09;;;;;;;12.63;7.05;;;;;;;13.49;62.38;100537.41;2065638;84;21044;-71
2021/06/10 00:17:11;;;;;;;11.83;7.12;;;;;;;13.47;62.50;100535.44;2069274;84;21477;-72
2021/06/10 00:20:15;;;;;;;9.23;6.50;;;;;;;13.40;62.74;100537.95;2066123;84;21062;-71
2021/06/10 00:23:16;;;;;;;9.45;6.92;;;;;;;13.35;62.78;100538.50;2064034;84;21068;-73
2021/06/10 00:26:17;;;;;;;12.55;6.70;;;;;;;13.28;63.03;100536.70;2063733;84;21188;-76
2021/06/10 00:29:18;;;;;;;14.78;6.97;;;;;;;13.21;63.15;100540.03;2068564;84;21100;-72
2021/06/10 00:32:20;;;;;;;10.45;6.33;;;;;;;13.19;63.24;100541.20;2067889;84;21019;-72
2021/06/10 00:35:24;;;;;;;7.05;5.37;;;;;;;13.15;63.28;100542.54;2068787;84;21015;-73
2021/06/10 00:38:25;;;;;;;11.28;6.12;;;;;;;13.08;63.24;100546.91;2065079;84;21030;-72
2021/06/10 00:41:36;;;;;;;10.20;6.17;;;;;;;13.03;63.44;100547.42;2067449;84;21101;-71
2021/06/10 00:44:38;;;;;;;10.23;6.50;;;;;;;12.95;63.52;100544.30;2067322;84;21053;-72
2021/06/10 00:47:44;;;;;;;9.90;5.25;;;;;;;12.87;63.67;100545.66;2065179;84;21224;-74
2021/06/10 00:50:47;;;;;;;7.47;5.62;;;;;;;12.86;63.92;100540.49;2063649;84;21061;-70
2021/06/10 00:53:49;;;;;;;7.80;5.08;;;;;;;12.89;63.95;100538.31;2066397;84;21132;-70
2021/06/10 00:56:52;;;;;;;9.88;5.58;;;;;;;12.87;63.84;100540.84;2066701;84;21086;-69
2021/06/10 00:59:54;;;;;;;12.40;5.20;;;;;;;12.86;64.02;100548.48;2068807;84;21133;-72
2021/06/10 01:02:55;;;;;;;13.30;5.10;;;;;;;12.85;64.16;100548.98;2067388;84;21035;-70
2021/06/10 01:06:04;;;;;;;7.85;5.75;;;;;;;12.89;64.25;100551.63;2084664;84;21631;-71
2021/06/10 01:09:17;;;;;;;7.67;4.50;;;;;;;12.84;64.08;100550.47;2086517;84;20997;-70
2021/06/10 01:12:55;;;;;;;8.10;5.15;;;;;;;12.76;64.00;100548.19;2081362;84;21084;-71
2021/06/10 01:15:59;;;;;;;8.23;4.87;;;;;;;12.63;64.24;100532.41;2082819;84;21055;-71
2021/06/10 01:19:06;;;;;;;8.58;5.35;;;;;;;12.61;64.09;100538.39;2081253;84;20987;-71
2021/06/10 01:22:30;;;;;;;11.73;5.28;;;;;;;12.43;64.54;100515.98;2081669;84;21097;-73
2021/06/10 01:25:43;;;;;;;8.03;5.50;;;;;;;12.43;64.54;100515.98;2081556;83;21072;-73
2021/06/10 01:28:46;;;;;;;6.80;5.33;;;;;;;12.37;64.63;100524.64;2081426;84;21539;-69
2021/06/10 01:31:47;;;;;;;7.15;4.90;;;;;;;12.38;64.71;100540.42;2079168;84;21048;-71
2021/06/10 01:34:49;;;;;;;7.37;5.67;;;;;;;12.37;64.87;100535.28;2080575;84;21032;-70
2021/06/10 01:37:53;;;;;;;9.73;4.30;;;;;;;12.31;65.09;100535.45;2082753;84;21120;-70
2021/06/10 01:40:56;;;;;;;7.05;5.30;;;;;;;12.28;65.18;100537.95;2081455;84;21045;-71
2021/06/10 01:44:00;;;;;;;11.97;6.00;;;;;;;12.18;65.13;100513.34;2076096;84;21136;-77
2021/06/10 01:47:01;;;;;;;9.38;4.83;;;;;;;12.21;65.13;100536.12;2087470;84;21038;-70
2021/06/10 01:50:04;;;;;;;7.70;5.10;;;;;;;12.21;64.89;100530.80;2085408;83;21001;-72
2021/06/10 01:53:06;;;;;;;9.43;5.42;;;;;;;12.19;65.31;100532.78;2089250;84;21611;-76
2021/06/10 01:56:09;;;;;;;11.88;5.65;;;;;;;12.17;65.39;100539.63;2084408;84;21117;-70
2021/06/10 01:59:13;;;;;;;5.83;5.08;;;;;;;12.05;65.47;100524.50;2085929;84;21125;-76
2021/06/10 02:02:14;;;;;;;9.58;5.33;;;;;;;12.07;65.84;100531.80;2085133;84;21061;-71
2021/06/10 02:05:18;;;;;;;9.53;5.92;;;;;;;12.07;65.84;100531.80;2049658;84;21725;-72
2021/06/10 02:08:20;;;;;;;6.87;4.45;;;;;;;12.06;66.25;100531.97;2076305;84;21080;-69
2021/06/10 02:11:22;;;;;;;6.50;5.03;;;;;;;12.04;66.46;100529.47;2076293;84;21030;-75
2021/06/10 02:14:24;;;;;;;11.55;5.30;;;;;;;12.00;66.64;100526.00;2080552;84;21100;-69
2021/06/10 02:17:25;;;;;;;6.33;5.05;;;;;;;11.97;66.43;100525.83;2075948;84;21080;-71
2021/06/10 02:20:27;;;;;;;7.60;4.72;;;;;;;11.94;66.48;100523.97;2079906;84;21120;-75
2021/06/10 02:23:28;;;;;;;6.72;5.03;;;;;;;11.88;66.35;100522.80;2078188;84;21088;-71
2021/06/10 02:26:29;;;;;;;8.83;5.85;;;;;;;11.77;66.26;100522.63;2078245;84;21132;-70
2021/06/10 02:29:30;;;;;;;7.65;5.22;;;;;;;11.73;66.40;100524.44;2079979;84;21075;-70
2021/06/10 02:32:31;;;;;;;6.55;5.15;;;;;;;11.73;66.49;100526.59;2080338;84;21029;-69
2021/06/10 02:35:35;;;;;;;14.05;5.47;;;;;;;11.72;66.63;100530.77;2079322;84;21121;-69
2021/06/10 02:38:40;;;;;;;9.28;4.92;;;;;;;11.71;66.48;100533.89;2068875;84;21057;-71
2021/06/10 02:41:46;;;;;;;7.00;5.33;;;;;;;11.68;66.43;100534.22;2077098;84;21057;-71
2021/06/10 02:44:51;;;;;;;9.63;5.00;;;;;;;11.64;66.46;100534.23;2079977;84;21099;-70
2021/06/10 02:47:56;;;;;;;10.38;6.60;;;;;;;11.60;66.44;100532.41;2075571;84;21004;-74
2021/06/10 02:50:59;;;;;;;7.95;4.47;;;;;;;11.55;66.74;100533.88;2075365;84;21121;-70
2021/06/10 02:54:04;;;;;;;7.33;4.42;;;;;;;11.52;66.73;100539.53;2076253;84;21544;-69
2021/06/10 02:57:10;;;;;;;7.62;5.25;;;;;;;11.49;67.25;100540.68;2076478;84;21104;-77
2021/06/10 03:00:14;;;;;;;8.93;5.22;;;;;;;11.45;66.98;100545.97;2075273;84;21137;-70
2021/06/10 03:03:17;;;;;;;7.37;4.90;;;;;;;11.42;67.22;100543.64;2079687;84;20981;-69
2021/06/10 03:06:21;;;;;;;7.60;4.85;;;;;;;11.42;67.20;100544.47;2082431;84;22549;-70
2021/06/10 03:09:25;;;;;;;7.03;4.87;;;;;;;11.44;67.37;100549.63;2079181;84;21072;-69
2021/06/10 03:12:27;;;;;;;8.05;5.90;;;;;;;11.42;67.26;100547.62;2083054;84;21061;-76
2021/06/10 03:15:32;;;;;;;11.95;5.97;;;;;;;11.40;67.43;100549.59;2085189;84;21069;-72
2021/06/10 03:18:34;;;;;;;8.48;5.42;;;;;;;11.48;67.65;100548.80;2076777;84;21088;-69
2021/06/10 03:21:39;;;;;;;8.13;5.97;;;;;;;11.59;67.55;100548.00;2080910;84;21388;-72
2021/06/10 03:24:41;;;;;;;7.50;5.37;;;;;;;11.67;67.94;100548.52;2081064;84;21120;-71
2021/06/10 03:27:45;;;;;;;8.23;5.17;;;;;;;12.39;68.29;100543.91;2081856;84;21101;-69
2021/06/10 03:30:46;;;;;;;8.23;5.65;;;;;;;12.39;68.29;100543.91;2081662;84;21096;-72
2021/06/10 03:33:53;;;;;;;7.87;5.55;;;;;;;12.87;67.84;100542.17;2080350;84;21520;-69
2021/06/10 03:36:56;;;;;;;7.78;5.22;;;;;;;13.29;67.48;100547.67;2083902;84;21544;-77
2021/06/10 03:40:00;;;;;;;6.47;5.60;;;;;;;13.78;67.09;100545.56;2053447;84;21049;-76
2021/06/10 03:43:06;;;;;;;8.23;5.85;;;;;;;14.25;66.58;100541.87;2080990;84;21096;-71
2021/06/10 03:46:09;;;;;;;7.42;5.30;;;;;;;14.83;66.20;100541.33;2078521;84;21061;-70
2021/06/10 03:49:12;;;;;;;11.18;5.87;;;;;;;15.41;65.61;100538.27;2084753;84;21759;-71
2021/06/10 03:52:13;;;;;;;7.80;5.30;;;;;;;15.95;64.83;100534.34;2083070;84;21058;-72
2021/06/10 03:55:17;;;;;;;14.58;5.92;;;;;;;16.50;64.27;100530.89;2083143;84;21607;-70
2021/06/10 03:58:21;;;;;;;11.75;5.50;;;;;;;16.94;63.37;100535.08;2081466;84;21107;-70
2021/06/10 04:01:24;;;;;;;9.40;4.90;;;;;;;17.43;63.06;100535.93;2081617;84;21018;-71
2021/06/10 04:04:27;;;;;;;6.55;4.90;;;;;;;17.89;62.22;100529.34;2066432;83;21060;-70
2021/06/10 04:07:29;;;;;;;6.60;4.80;;;;;;;18.35;61.77;100533.06;2036029;85;21679;-74
2021/06/10 04:10:30;;;;;;;12.20;5.60;;;;;;;18.73;60.90;100529.72;2038935;85;21048;-68
2021/06/10 04:13:32;;;;;;;10.28;5.40;;;;;;;19.05;59.89;100523.95;2039609;87;21072;-76
2021/06/10 04:16:33;;;;;;;8.00;5.55;;;;;;;19.31;59.25;100517.63;2034549;85;21420;-71
2021/06/10 04:19:34;;;;;;;8.05;5.50;;;;;;;19.55;58.75;100513.38;2037169;85;21052;-75
2021/06/10 04:22:37;;;;;;;9.90;5.87;;;;;;;19.84;58.15;100517.36;2036752;85;21038;-70
2021/06/10 04:25:40;;;;;;;6.47;5.35;;;;;;;20.08;57.97;100523.82;2037518;85;21096;-68
2021/06/10 04:28:47;;;;;;;6.05;5.17;;;;;;;20.44;57.77;100524.13;2036600;85;21104;-68
2021/06/10 04:32:04;;;;;;;;;;;;;;;;;;;;;
2021/06/10 04:34:53;;;;;;;11.53;6.42;;;;;;;21.61;56.12;100524.87;2033008;85;21080;-68
2021/06/10 04:37:54;;;;;;;6.33;5.70;;;;;;;21.97;55.23;100524.98;2038783;85;21003;-72
2021/06/10 04:40:57;;;;;;;8.65;5.80;;;;;;;22.22;54.56;100529.70;2035797;85;21088;-71
2021/06/10 04:43:58;;;;;;;5.75;4.72;;;;;;;22.37;53.86;100527.34;2037281;85;21104;-72
2021/06/10 04:47:02;;;;;;;5.62;4.78;;;;;;;22.41;53.45;100528.22;2036055;85;21119;-71
2021/06/10 04:50:05;;;;;;;12.73;5.87;;;;;;;22.55;52.75;100535.88;2037193;85;21078;-70
2021/06/10 04:53:09;;;;;;;7.58;5.37;;;;;;;22.57;52.90;100533.74;2036873;85;21446;-70
2021/06/10 04:56:12;;;;;;;7.58;5.12;;;;;;;22.89;52.36;100523.91;2035499;85;21109;-72
2021/06/10 04:59:13;;;;;;;5.83;5.22;;;;;;;23.25;51.70;100521.41;2037851;85;21108;-71
2021/06/10 05:02:15;;;;;;;6.62;5.92;;;;;;;23.51;51.26;100521.92;2039267;85;21062;-74
2021/06/10 05:05:16;;;;;;;10.40;5.60;;;;;;;23.75;50.79;100526.70;2039483;84;21430;-74
2021/06/10 05:08:17;;;;;;;7.05;5.03;;;;;;;24.03;50.09;100532.60;2035039;85;21101;-73
2021/06/10 05:11:26;;;;;;;9.58;5.55;;;;;;;24.20;49.40;100529.89;2037874;85;21025;-72
2021/06/10 05:14:22;;;;;;;10.93;5.87;;;;;;;24.28;48.94;100527.31;2034545;85;21110;-71
2021/06/10 05:17:24;;;;;;;7.17;5.65;;;;;;;24.44;48.66;100525.66;2034451;85;21532;-72
2021/06/10 05:20:26;;;;;;;7.70;5.62;;;;;;;24.74;48.00;100525.28;2038676;85;21060;-73
2021/06/10 05:23:27;;;;;;;8.70;5.40;;;;;;;24.98;47.78;100523.17;2033942;85;21093;-72
2021/06/10 05:26:30;;;;;;;9.95;5.55;;;;;;;25.39;47.30;100524.48;2040362;85;21153;-73
2021/06/10 05:29:33;;;;;;;6.97;5.37;;;;;;;25.70;46.80;100527.52;2035550;85;21632;-77
2021/06/10 05:32:36;;;;;;;9.38;5.87;;;;;;;26.19;45.77;100526.08;2039637;85;21507;-74
2021/06/10 05:35:38;;;;;;;6.17;5.10;;;;;;;26.45;45.37;100521.63;2034930;85;21077;-73
2021/06/10 05:38:39;;;;;;;7.37;5.75;;;;;;;26.38;44.81;100518.30;2036050;85;21007;-73
2021/06/10 05:41:40;;;;;;;7.72;5.62;;;;;;;26.23;44.54;100514.94;2038310;85;20962;-72
2021/06/10 05:44:46;;;;;;;9.18;5.33;;;;;;;26.38;44.28;100508.27;2037226;85;21057;-77
2021/06/10 05:47:48;;;;;;;8.25;5.33;;;;;;;26.44;43.78;100508.27;2037842;85;21037;-79
2021/06/10 05:50:52;;;;;;;14.50;6.30;;;;;;;26.66;43.70;100507.61;2038565;85;21110;-74
2021/06/10 05:53:54;;;;;;;9.35;5.35;;;;;;;26.98;43.07;100497.98;2035028;85;21130;-73
2021/06/10 05:56:58;;;;;;;8.55;4.90;;;;;;;26.83;42.19;100502.82;2035722;85;20980;-75
2021/06/10 06:00:00;;;;;;;12.93;5.03;;;;;;;26.90;42.72;100504.48;2037744;85;20985;-72
2021/06/10 06:03:03;;;;;;;6.87;5.20;;;;;;;27.12;42.40;100498.30;2047143;84;22060;-74
2021/06/10 06:06:11;;;;;;;9.80;4.60;;;;;;;27.38;42.11;100502.48;2057120;84;21681;-71
2021/06/10 06:09:16;;;;;;;9.23;5.30;;;;;;;27.40;41.62;100501.67;2071192;84;21051;-71
2021/06/10 06:12:16;;;;;;;11.53;5.08;;;;;;;27.48;41.48;100498.39;2059666;84;21039;-74
2021/06/10 06:15:18;;;;;;;12.23;6.25;;;;;;;27.48;41.45;100498.39;2065806;84;21074;-72
2021/06/10 06:18:19;;;;;;;15.48;5.35;;;;;;;27.65;41.27;100492.17;2063740;84;21136;-73
2021/06/10 06:21:20;;;;;;;10.85;5.83;;;;;;;27.91;40.83;100500.39;2065846;84;21014;-73
2021/06/10 06:24:21;;;;;;;10.70;5.22;;;;;;;28.08;40.71;100508.30;2064108;84;21648;-72
2021/06/10 06:27:22;;;;;;;11.10;5.80;;;;;;;28.33;40.27;100506.09;2065653;84;21304;-73
2021/06/10 06:30:24;;;;;;;12.93;6.37;;;;;;;28.49;39.83;100509.06;2063807;84;21144;-73
2021/06/10 06:33:25;;;;;;;13.08;6.70;;;;;;;28.45;39.67;100512.64;2073930;84;21501;-73
2021/06/10 06:36:38;;;;;;;;;;;;;;;;;;;;;
2021/06/10 06:39:31;;;;;;;10.55;6.58;;;;;;;28.45;38.95;100506.62;2066010;84;21164;-72
2021/06/10 06:42:33;;;;;;;11.35;4.83;;;;;;;28.33;38.94;100512.91;2044198;84;21122;-72
2021/06/10 06:45:39;;;;;;;9.20;4.85;;;;;;;28.36;39.17;100515.89;2066524;84;21015;-72
2021/06/10 06:48:43;;;;;;;8.88;4.62;;;;;;;28.51;38.70;100508.24;2069556;84;21050;-73
2021/06/10 06:51:44;;;;;;;13.93;5.05;;;;;;;28.77;38.71;100512.27;2063692;84;21544;-73
2021/06/10 06:54:45;;;;;;;10.10;4.20;;;;;;;29.07;38.36;100509.18;2065592;84;21102;-73
2021/06/10 06:57:46;;;;;;;7.75;4.33;;;;;;;29.31;37.79;100509.31;2062722;84;21549;-72
2021/06/10 07:00:47;;;;;;;11.43;3.80;;;;;;;29.43;37.37;100511.98;2065905;84;21034;-74
2021/06/10 07:03:49;;;;;;;6.45;3.70;;;;;;;29.60;37.33;100511.59;2061867;84;21050;-72
2021/06/10 07:06:51;;;;;;;13.55;4.10;;;;;;;29.83;36.95;100506.53;2080947;84;21152;-74
2021/06/10 07:09:52;;;;;;;6.05;3.55;;;;;;;29.66;36.28;100508.30;2053448;84;21046;-72
2021/06/10 07:12:58;;;;;;;4.87;3.08;;;;;;;29.22;35.93;100501.70;2079164;84;21025;-73
2021/06/10 07:16:02;;;;;;;5.30;3.33;;;;;;;28.86;36.00;100505.13;2082357;84;21033;-73
2021/06/10 07:19:04;;;;;;;7.42;3.40;;;;;;;28.82;36.02;100499.96;2077619;84;21016;-76
2021/06/10 07:22:05;;;;;;;6.10;3.10;;;;;;;28.90;36.20;100502.67;2081280;84;21099;-73
2021/06/10 07:25:08;;;;;;;5.20;3.10;;;;;;;29.20;35.95;100501.71;2081686;84;21454;-73
2021/06/10 07:28:10;;;;;;;10.00;3.17;;;;;;;29.32;35.46;100506.31;2079129;84;21021;-75
2021/06/10 07:31:11;;;;;;;5.30;2.98;;;;;;;29.13;35.74;100512.96;2080952;84;20986;-72
2021/06/10 07:34:12;;;;;;;7.08;2.83;;;;;;;28.86;35.62;100518.77;2079630;84;21066;-74
2021/06/10 07:37:18;;;;;;;9.23;3.27;;;;;;;28.77;35.71;100524.55;2082802;84;21021;-73
2021/06/10 07:40:27;;;;;;;6.67;2.65;;;;;;;28.42;35.64;100535.84;2078811;84;21559;-74
2021/06/10 07:43:24;;;;;;;2.65;2.40;;;;;;;27.92;35.81;100551.91;2076995;84;21799;-72
2021/06/10 07:46:25;;;;;;;3.75;2.45;;;;;;;27.30;35.89;100555.58;2080456;84;21890;-72
2021/06/10 07:49:27;;;;;;;9.38;2.58;;;;;;;26.72;36.33;100554.21;2055371;84;20997;-74
2021/06/10 07:52:28;;;;;;;7.97;2.55;;;;;;;26.20;36.34;100558.16;2077822;84;20985;-73
2021/06/10 07:55:31;;;;;;;8.88;3.27;;;;;;;25.65;37.26;100563.63;2081199;84;21066;-75
2021/06/10 07:58:33;;;;;;;6.00;2.85;;;;;;;25.20;38.19;100566.61;2080323;84;21089;-72
2021/06/10 08:01:37;;;;;;;6.08;3.15;;;;;;;24.77;39.11;100569.55;2081416;84;21061;-72
2021/06/10 08:04:38;;;;;;;6.78;2.87;;;;;;;24.46;39.89;100573.17;2079546;84;21018;-71
2021/06/10 08:07:42;;;;;;;5.03;2.87;;;;;;;24.09;40.45;100575.52;2064582;84;21054;-72
2021/06/10 08:10:46;;;;;;;4.67;3.10;;;;;;;23.87;41.86;100573.52;2063898;84;21138;-72
2021/06/10 08:13:50;;;;;;;4.83;3.27;;;;;;;23.55;41.63;100588.06;2066916;84;21105;-72
2021/06/10 08:16:52;;;;;;;5.47;4.03;;;;;;;23.16;43.38;100598.64;2064345;84;21118;-75
2021/06/10 08:19:57;;;;;;;10.03;4.40;;;;;;;22.62;43.97;100609.30;2065991;84;21084;-71
2021/06/10 08:23:00;;;;;;;11.18;5.08;;;;;;;21.98;46.18;100611.19;2068894;84;21054;-76
2021/06/10 08:26:04;;;;;;;6.22;4.28;;;;;;;21.31;46.57;100611.73;2060241;84;21089;-74
2021/06/10 08:29:05;;;;;;;5.62;3.98;;;;;;;20.76;47.01;100613.34;2065260;84;21021;-71
2021/06/10 08:32:07;;;;;;;9.88;4.37;;;;;;;20.48;47.80;100621.03;2063999;83;21038;-71
2021/06/10 08:35:18;;;;;;;5.47;4.10;;;;;;;20.24;48.64;100626.16;2064873;84;21072;-71
2021/06/10 08:38:20;;;;;;;6.60;3.92;;;;;;;20.02;48.88;100626.20;2066802;84;21073;-71
2021/06/10 08:41:28;;;;;;;6.08;4.45;;;;;;;19.83;50.67;100627.98;2060360;84;21078;-76
2021/06/10 08:44:37;;;;;;;6.08;3.77;;;;;;;19.73;50.19;100633.81;2071406;84;20999;-71
2021/06/10 08:47:40;;;;;;;3.90;3.45;;;;;;;19.47;50.53;100630.16;2060651;84;21074;-71
2021/06/10 08:50:51;;;;;;;;;;;;;;;;;;;;;
2021/06/10 08:53:56;;;;;;;4.40;3.83;;;;;;;19.00;52.39;100639.39;2063487;84;21479;-71
2021/06/10 08:56:57;;;;;;;9.15;3.83;;;;;;;18.80;54.48;100640.24;2061896;84;21756;-76
2021/06/10 09:00:00;;;;;;;8.58;3.80;;;;;;;18.58;55.58;100638.77;2067166;84;21107;-73
2021/06/10 09:03:16;;;;;;;;;;;;;;;;;;;;;
2021/06/10 09:06:09;;;;;;;5.10;3.02;;;;;;;18.34;55.56;100626.79;2069021;84;21303;-74
2021/06/10 09:09:10;;;;;;;3.83;3.10;;;;;;;18.14;56.03;100634.30;2081664;84;21108;-73
2021/06/10 09:12:13;;;;;;;2.90;2.70;;;;;;;18.02;56.06;100644.48;2050831;84;21024;-77
2021/06/10 09:15:18;;;;;;;3.77;2.95;;;;;;;17.99;56.25;100656.97;2079624;84;22176;-74
2021/06/10 09:18:24;;;;;;;4.28;2.98;;;;;;;17.92;57.54;100652.94;2077973;84;21097;-71
2021/06/10 09:21:37;;;;;;;3.75;3.27;;;;;;;17.92;58.02;100651.08;2075579;84;21079;-71
2021/06/10 09:24:41;;;;;;;6.12;3.25;;;;;;;17.89;57.35;100652.82;2080511;84;21033;-71
2021/06/10 09:27:59;;;;;;;4.25;3.33;;;;;;;17.93;57.18;100655.92;2059792;84;21021;-71
2021/06/10 09:31:01;;;;;;;4.50;3.52;;;;;;;17.91;57.33;100660.17;2073603;84;21046;-70
2021/06/10 09:34:10;;;;;;;5.42;3.98;;;;;;;18.00;57.52;100665.36;2079812;84;21550;-71
2021/06/10 09:37:15;;;;;;;5.65;4.58;;;;;;;18.05;57.58;100662.90;2075526;84;21061;-70
2021/06/10 09:40:21;;;;;;;5.80;4.95;;;;;;;18.03;58.10;100664.95;2081865;84;21112;-70
2021/06/10 09:43:40;;;;;;;9.15;5.40;;;;;;;17.96;58.57;100680.20;2063096;84;21574;-70
2021/06/10 09:47:03;;;;;;;5.35;4.60;;;;;;;17.95;58.84;100666.47;2078884;84;21073;-68
2021/06/10 09:50:35;;;;;;;4.67;4.03;;;;;;;17.76;59.19;100670.18;2072574;84;21091;-70
2021/06/10 09:53:39;;;;;;;6.58;4.00;;;;;;;17.65;59.60;100670.27;2076574;84;21105;-71
2021/06/10 09:56:40;;;;;;;4.50;4.00;;;;;;;17.68;59.89;100661.81;2082105;84;21572;-70
2021/06/10 09:59:55;;;;;;;6.42;4.83;;;;;;;17.82;60.44;100644.42;2081851;84;21129;-74
2021/06/10 10:02:56;;;;;;;8.78;5.33;;;;;;;17.89;60.63;100627.84;2078597;84;21113;-69
2021/06/10 10:06:06;;;;;;;8.50;5.80;;;;;;;17.88;61.17;100620.31;2081229;84;21651;-70
2021/06/10 10:09:08;;;;;;;7.35;5.00;;;;;;;17.80;60.82;100628.54;2075349;84;21101;-70
2021/06/10 10:12:14;;;;;;;5.97;4.50;;;;;;;17.81;60.97;100624.81;2069139;84;21053;-72
2021/06/10 10:15:19;;;;;;;5.33;4.33;;;;;;;17.81;61.03;100630.19;2072308;84;21317;-70
2021/06/10 10:18:21;;;;;;;6.20;4.92;;;;;;;17.85;61.42;100642.19;2078002;84;21037;-71
2021/06/10 10:21:28;;;;;;;6.78;5.15;;;;;;;17.95;61.97;100649.02;2076124;84;21062;-69
2021/06/10 10:24:37;;;;;;;7.55;6.00;;;;;;;17.86;62.19;100657.25;2077222;84;21085;-71
2021/06/10 10:27:39;;;;;;;6.70;5.30;;;;;;;17.84;63.02;100660.64;2077249;84;21517;-69
2021/06/10 10:30:46;;;;;;;8.88;5.28;;;;;;;17.77;64.21;100661.13;2050437;84;21124;-70
2021/06/10 10:33:49;;;;;;;8.28;5.28;;;;;;;17.72;63.80;100660.06;2078846;84;21141;-71
2021/06/10 10:36:51;;;;;;;7.03;4.37;;;;;;;17.71;63.61;100628.38;2069089;84;21899;-70
2021/06/10 10:39:56;;;;;;;7.83;5.62;;;;;;;17.74;63.45;100630.66;2076048;84;22260;-72
2021/06/10 10:43:15;;;;;;;8.45;4.95;;;;;;;17.75;63.54;100625.59;2066887;84;20977;-70
2021/06/10 10:46:22;;;;;;;8.55;5.35;;;;;;;17.73;63.98;100616.91;2077009;84;21712;-70
2021/06/10 10:49:34;;;;;;;;;;;;;;;;;;;;;
2021/06/10 10:52:29;;;;;;;7.62;5.55;;;;;;;17.53;63.77;100584.64;2074488;84;21564;-71
2021/06/10 10:55:31;;;;;;;6.40;5.00;;;;;;;17.49;64.88;100555.23;2075072;84;21064;-74
2021/06/10 10:58:33;;;;;;;6.47;5.28;;;;;;;17.50;64.81;100564.11;2078306;84;21732;-71
2021/06/10 11:01:35;;;;;;;9.53;5.00;;;;;;;17.53;65.16;100566.38;2074971;84;21640;-71
2021/06/10 11:05:00;;;;;;;8.65;5.60;;;;;;;17.72;65.33;100564.80;2077203;84;21061;-72
2021/06/10 11:08:04;;;;;;;8.40;5.67;;;;;;;17.81;65.12;100559.58;2075191;84;21716;-71
2021/06/10 11:11:06;;;;;;;6.75;5.20;;;;;;;17.99;65.38;100561.66;2078586;84;21012;-72
2021/06/10 11:14:31;;;;;;;6.55;4.47;;;;;;;18.01;65.63;100551.55;2085361;84;21486;-72
2021/06/10 11:17:43;;;;;;;6.47;4.55;;;;;;;18.16;64.82;100552.20;2083904;84;21091;-74
2021/06/10 11:20:45;;;;;;;5.78;4.67;;;;;;;18.34;64.77;100552.39;2082374;84;21571;-75
2021/06/10 11:24:10;;;;;;;4.75;4.08;;;;;;;18.52;64.34;100545.55;2083129;84;21101;-75
2021/06/10 11:27:12;;;;;;;4.78;4.10;;;;;;;18.68;63.68;100539.75;2066722;84;21030;-72
2021/06/10 11:30:27;;;;;;;5.67;4.70;;;;;;;18.73;63.63;100534.58;2082557;84;20979;-73
2021/06/10 11:33:30;;;;;;;4.90;4.30;;;;;;;18.77;63.37;100528.28;2079423;84;21136;-73
2021/06/10 11:36:31;;;;;;;4.40;4.00;;;;;;;18.84;63.40;100532.29;2039674;85;21008;-73
2021/06/10 11:39:36;;;;;;;4.62;4.22;;;;;;;18.92;62.99;100535.60;2079468;84;21628;-74
2021/06/10 11:42:44;;;;;;;7.25;4.03;;;;;;;18.98;63.09;100528.55;2079505;84;21627;-73
2021/06/10 11:45:47;;;;;;;4.53;3.67;;;;;;;19.23;62.94;100525.45;2086220;84;21085;-73
2021/06/10 11:48:55;;;;;;;4.20;3.80;;;;;;;19.58;62.55;100529.09;2080483;84;21049;-73
2021/06/10 11:51:57;;;;;;;5.62;3.12;;;;;;;20.00;62.13;100521.39;2083362;84;21021;-75
2021/06/10 11:55:09;;;;;;;3.00;2.70;;;;;;;20.53;61.28;100520.97;2077931;84;21501;-74
2021/06/10 11:58:14;;;;;;;2.80;2.60;;;;;;;20.88;60.61;100516.34;2083340;84;21116;-75
2021/06/10 12:01:15;;;;;;;6.17;3.40;;;;;;;21.21;59.07;100505.68;2080213;84;21080;-73
2021/06/10 12:04:18;;;;;;;3.22;2.10;;;;;;;21.49;57.98;100503.78;2052843;84;22326;-77
2021/06/10 12:07:20;;;;;;;3.30;3.05;;;;;;;21.64;57.03;100494.72;2075932;84;21114;-73
2021/06/10 12:10:22;;;;;;;4.70;2.25;;;;;;;21.95;56.96;100488.73;2068908;84;21086;-73
2021/06/10 12:13:26;;;;;;;2.83;2.30;;;;;;;22.15;55.52;100483.00;2067063;84;21519;-76
2021/06/10 12:16:28;;;;;;;4.42;2.20;;;;;;;22.29;54.91;100470.92;2062349;84;21056;-74
2021/06/10 12:19:29;;;;;;;2.42;2.22;;;;;;;22.54;54.42;100469.32;2069953;84;21111;-74
2021/06/10 12:22:46;;;;;;;2.50;2.30;;;;;;;22.73;53.56;100463.24;2062251;84;21667;-73
2021/06/10 12:25:57;;;;;;;4.35;1.90;;;;;;;22.84;52.74;100457.52;2060695;84;21207;-77
2021/06/10 12:29:00;;;;;;;2.08;1.85;;;;;;;22.98;49.98;100449.45;2065687;84;21012;-76
2021/06/10 12:32:02;;;;;;;2.02;1.70;;;;;;;23.03;51.05;100450.05;2066057;84;21403;-77
2021/06/10 12:35:04;;;;;;;1.65;1.55;;;;;;;23.07;50.91;100442.30;2063451;84;21458;-75
2021/06/10 12:38:06;;;;;;;2.05;1.85;;;;;;;23.16;50.93;100443.01;2068737;84;21014;-74
2021/06/10 12:41:26;;;;;;;2.58;1.80;;;;;;;23.05;49.40;100442.53;2065322;84;21130;-76
2021/06/10 12:44:32;;;;;;;4.05;1.80;;;;;;;23.07;49.42;100440.41;2062773;84;21951;-77
2021/06/10 12:47:43;;;;;;;2.98;1.80;;;;;;;23.24;49.61;100439.92;2068428;84;21054;-76
2021/06/10 12:50:37;;;;;;;3.42;1.77;;;;;;;23.45;48.62;100434.36;2060432;84;21055;-75
2021/06/10 12:53:59;;;;;;;3.42;1.85;;;;;;;23.49;48.74;100439.55;2064568;84;20991;-76
2021/06/10 12:57:00;;;;;;;2.17;1.72;;;;;;;23.56;48.30;100437.22;2029958;84;21019;-76
2021/06/10 13:00:12;;;;;;;2.85;1.95;;;;;;;23.66;47.07;100436.05;2062685;84;21098;-76
2021/06/10 13:03:14;;;;;;;1.95;1.70;;;;;;;23.84;48.04;100435.00;2064912;84;21074;-76
2021/06/10 13:06:16;;;;;;;2.00;1.85;;;;;;;24.10;47.86;100435.70;2062367;84;21077;-75
2021/06/10 13:09:25;;;;;;;2.72;1.95;;;;;;;24.01;46.37;100441.23;2079428;84;21010;-75
2021/06/10 13:12:43;;;;;;;2.37;2.10;;;;;;;24.00;46.58;100435.53;2078534;84;21073;-76
2021/06/10 13:15:45;;;;;;;2.20;2.02;;;;;;;24.14;46.26;100436.83;2082161;84;21046;-74
2021/06/10 13:18:46;;;;;;;1.72;1.57;;;;;;;23.98;45.71;100436.84;2084897;84;21084;-74
2021/06/10 13:21:53;;;;;;;2.27;2.05;;;;;;;24.06;45.83;100434.53;2077834;84;21046;-76
2021/06/10 13:24:55;;;;;;;3.98;1.77;;;;;;;24.28;46.18;100433.77;2069747;84;21108;-81
2021/06/10 13:28:19;;;;;;;2.83;2.00;;;;;;;24.51;45.79;100436.28;2077001;84;21009;-74
2021/06/10 13:31:42;;;;;;;2.17;1.92;;;;;;;24.71;45.69;100431.64;2087674;84;22155;-76
2021/06/10 13:34:55;;;;;;;3.45;1.82;;;;;;;24.92;45.17;100431.88;2079877;84;21092;-75
2021/06/10 13:37:47;;;;;;;2.27;1.95;;;;;;;25.03;44.83;100427.69;2080544;84;21025;-73
2021/06/10 13:40:48;;;;;;;2.50;1.95;;;;;;;24.80;43.90;100424.69;2079722;84;21064;-77
2021/06/10 13:43:49;;;;;;;2.00;1.90;;;;;;;24.82;44.50;100425.81;2044200;85;21066;-73
2021/06/10 13:46:58;;;;;;;4.47;2.17;;;;;;;25.03;44.41;100418.70;2010631;87;21139;-73
2021/06/10 13:50:02;;;;;;;2.10;1.90;;;;;;;25.19;43.80;100420.53;2043408;85;21538;-74
2021/06/10 13:53:02;;;;;;;3.55;1.90;;;;;;;25.22;43.37;100422.73;2043167;85;21090;-79
2021/06/10 13:56:04;;;;;;;2.25;2.05;;;;;;;25.17;42.96;100408.29;2049406;85;21074;-74
2021/06/10 13:59:05;;;;;;;2.05;1.85;;;;;;;24.99;42.48;100410.26;2043176;85;21424;-78
2021/06/10 14:02:07;;;;;;;3.58;2.12;;;;;;;25.09;43.16;100402.77;2017490;86;22363;-74
2021/06/10 14:05:09;;;;;;;2.05;1.80;;;;;;;25.24;42.82;100402.13;2006641;87;21586;-75
2021/06/10 14:08:10;;;;;;;2.60;1.90;;;;;;;25.24;42.79;100392.08;2039094;86;21101;-79
2021/06/10 14:11:13;;;;;;;4.47;2.00;;;;;;;25.38;43.03;100388.95;2062873;84;21494;-76
2021/06/10 14:14:14;;;;;;;2.50;2.20;;;;;;;25.37;42.20;100385.94;2066082;84;20996;-75
2021/06/10 14:17:15;;;;;;;6.20;2.40;;;;;;;25.39;42.63;100380.53;2061931;84;21590;-75
2021/06/10 14:20:17;;;;;;;2.02;1.92;;;;;;;25.23;41.83;100382.85;2065733;84;21106;-75
2021/06/10 14:23:19;;;;;;;3.05;1.80;;;;;;;25.22;42.40;100381.20;2065316;84;21168;-80